createdAt,value
2024-04-09T00:00:54.756Z,628.00
2024-04-09T00:01:54.700Z,625.00
2024-04-09T00:02:54.856Z,624.00
2024-04-09T00:03:54.938Z,624.00
2024-04-09T00:04:54.953Z,625.00
2024-04-09T00:05:54.907Z,625.00
2024-04-09T00:06:54.901Z,626.00
2024-04-09T00:07:54.935Z,629.00
2024-04-09T00:08:55.033Z,630.00
2024-04-09T00:09:55.011Z,628.00
2024-04-09T00:10:55.041Z,628.00
2024-04-09T00:11:55.349Z,628.00
2024-04-09T00:12:55.136Z,630.00
2024-04-09T00:13:55.183Z,629.00
2024-04-09T00:14:55.282Z,629.00
2024-04-09T00:15:55.221Z,630.00
2024-04-09T00:16:55.537Z,632.00
2024-04-09T00:17:55.550Z,633.00
2024-04-09T00:18:55.466Z,632.00
2024-04-09T00:19:55.378Z,632.00
2024-04-09T00:20:55.428Z,635.00
2024-04-09T00:21:55.470Z,634.00
2024-04-09T00:22:55.493Z,636.00
2024-04-09T00:23:55.590Z,635.00
2024-04-09T00:24:55.567Z,637.00
2024-04-09T00:25:55.591Z,634.00
2024-04-09T00:26:55.666Z,633.00
2024-04-09T00:27:55.666Z,631.00
2024-04-09T00:28:55.697Z,634.00
2024-04-09T00:29:55.791Z,634.00
2024-04-09T00:30:55.818Z,634.00
2024-04-09T00:31:55.835Z,634.00
2024-04-09T00:32:55.984Z,636.00
2024-04-09T00:33:56.074Z,635.00
2024-04-09T00:34:55.959Z,636.00
2024-04-09T00:35:55.996Z,634.00
2024-04-09T00:36:56.027Z,635.00
2024-04-09T00:37:56.067Z,634.00
2024-04-09T00:38:56.164Z,636.00
2024-04-09T00:39:56.163Z,635.00
2024-04-09T00:40:56.187Z,636.00
2024-04-09T00:41:56.303Z,635.00
2024-04-09T00:42:56.282Z,633.00
2024-04-09T00:43:56.333Z,633.00
2024-04-09T00:44:56.433Z,631.00
2024-04-09T00:45:56.407Z,632.00
2024-04-09T00:46:56.450Z,630.00
2024-04-09T00:47:56.616Z,629.00
2024-04-09T00:48:56.576Z,627.00
2024-04-09T00:49:56.607Z,631.00
2024-04-09T00:50:56.633Z,631.00
2024-04-09T00:51:56.700Z,632.00
2024-04-09T00:52:56.712Z,630.00
2024-04-09T00:53:56.781Z,630.00
2024-04-09T00:54:56.789Z,629.00
2024-04-09T00:55:56.832Z,629.00
2024-04-09T00:56:56.894Z,629.00
2024-04-09T00:57:56.932Z,629.00
2024-04-09T00:58:56.963Z,630.00
2024-04-09T00:59:57.095Z,628.00
2024-04-09T01:00:57.092Z,626.00
2024-04-09T01:01:57.078Z,625.00
2024-04-09T01:02:57.249Z,626.00
2024-04-09T01:03:57.302Z,626.00
2024-04-09T01:04:57.251Z,626.00
2024-04-09T01:05:57.290Z,628.00
2024-04-09T01:06:57.329Z,628.00
2024-04-09T01:07:57.378Z,627.00
2024-04-09T01:08:57.471Z,626.00
2024-04-09T01:09:57.425Z,628.00
2024-04-09T01:10:57.506Z,628.00
2024-04-09T01:11:57.594Z,631.00
2024-04-09T01:12:57.604Z,630.00
2024-04-09T01:13:57.604Z,630.00
2024-04-09T01:14:57.668Z,630.00
2024-04-09T01:15:57.684Z,632.00
2024-04-09T01:16:57.760Z,633.00
2024-04-09T01:17:57.900Z,633.00
2024-04-09T01:18:57.908Z,633.00
2024-04-09T01:19:57.869Z,632.00
2024-04-09T01:20:58.001Z,632.00
2024-04-09T01:21:57.971Z,633.00
2024-04-09T01:22:58.027Z,633.00
2024-04-09T01:23:58.075Z,631.00
2024-04-09T01:24:58.129Z,632.00
2024-04-09T01:25:58.151Z,629.00
2024-04-09T01:26:58.241Z,628.00
2024-04-09T01:27:58.223Z,628.00
2024-04-09T01:28:58.255Z,629.00
2024-04-09T01:29:58.346Z,628.00
2024-04-09T01:30:58.351Z,627.00
2024-04-09T01:31:58.389Z,626.00
2024-04-09T01:32:58.594Z,627.00
2024-04-09T01:33:58.744Z,628.00
2024-04-09T01:34:58.544Z,627.00
2024-04-09T01:35:58.627Z,627.00
2024-04-09T01:36:58.639Z,626.00
2024-04-09T01:37:58.686Z,623.00
2024-04-09T01:38:58.747Z,624.00
2024-04-09T01:39:58.784Z,625.00
2024-04-09T01:40:58.834Z,625.00
2024-04-09T01:41:58.889Z,624.00
2024-04-09T01:42:58.922Z,624.00
2024-04-09T01:43:58.957Z,624.00
2024-04-09T01:44:59.004Z,626.00
2024-04-09T01:45:59.045Z,628.00
2024-04-09T01:46:59.120Z,630.00
2024-04-09T01:47:59.187Z,630.00
2024-04-09T01:48:59.239Z,629.00
2024-04-09T01:49:59.252Z,631.00
2024-04-09T01:50:59.290Z,629.00
2024-04-09T01:51:59.300Z,631.00
2024-04-09T01:52:59.345Z,631.00
2024-04-09T01:53:59.394Z,633.00
2024-04-09T01:54:59.444Z,633.00
2024-04-09T01:55:59.479Z,634.00
2024-04-09T01:56:59.540Z,634.00
2024-04-09T01:57:59.599Z,634.00
2024-04-09T01:58:59.626Z,635.00
2024-04-09T01:59:59.696Z,635.00
2024-04-09T02:00:59.764Z,635.00
2024-04-09T02:01:59.774Z,630.00
2024-04-09T02:02:59.925Z,629.00
2024-04-09T02:03:59.963Z,627.00
2024-04-09T02:04:59.911Z,626.00
2024-04-09T02:06:00.078Z,626.00
2024-04-09T02:07:00.006Z,629.00
2024-04-09T02:08:00.064Z,629.00
2024-04-09T02:09:00.135Z,628.00
2024-04-09T02:10:00.173Z,628.00
2024-04-09T02:11:00.187Z,629.00
2024-04-09T02:12:00.408Z,629.00
2024-04-09T02:13:00.305Z,628.00
2024-04-09T02:14:00.334Z,628.00
2024-04-09T02:15:00.485Z,631.00
2024-04-09T02:16:00.432Z,631.00
2024-04-09T02:17:00.470Z,631.00
2024-04-09T02:18:00.710Z,629.00
2024-04-09T02:19:00.590Z,629.00
2024-04-09T02:20:00.635Z,629.00
2024-04-09T02:21:00.769Z,628.00
2024-04-09T02:22:00.740Z,630.00
2024-04-09T02:23:00.795Z,628.00
2024-04-09T02:24:00.855Z,626.00
2024-04-09T02:25:00.912Z,626.00
2024-04-09T02:26:00.941Z,626.00
2024-04-09T02:27:01.020Z,625.00
2024-04-09T02:28:01.049Z,624.00
2024-04-09T02:29:01.099Z,621.00
2024-04-09T02:30:01.260Z,620.00
2024-04-09T02:31:01.203Z,621.00
2024-04-09T02:32:01.382Z,622.00
2024-04-09T02:33:01.341Z,624.00
2024-04-09T02:34:01.399Z,624.00
2024-04-09T02:35:01.408Z,623.00
2024-04-09T02:36:01.493Z,623.00
2024-04-09T02:37:01.508Z,623.00
2024-04-09T02:38:01.600Z,625.00
2024-04-09T02:39:01.647Z,626.00
2024-04-09T02:40:01.791Z,625.00
2024-04-09T02:41:01.778Z,625.00
2024-04-09T02:42:01.830Z,623.00
2024-04-09T02:43:01.793Z,625.00
2024-04-09T02:44:01.859Z,628.00
2024-04-09T02:45:01.929Z,631.00
2024-04-09T02:46:02.003Z,631.00
2024-04-09T02:47:02.150Z,631.00
2024-04-09T02:48:02.191Z,631.00
2024-04-09T02:49:02.283Z,631.00
2024-04-09T02:50:02.174Z,630.00
2024-04-09T02:51:02.362Z,627.00
2024-04-09T02:52:02.290Z,628.00
2024-04-09T02:53:02.359Z,629.00
2024-04-09T02:54:02.410Z,629.00
2024-04-09T02:55:02.464Z,628.00
2024-04-09T02:56:02.500Z,626.00
2024-04-09T02:57:02.610Z,624.00
2024-04-09T02:58:02.616Z,626.00
2024-04-09T02:59:02.681Z,624.00
2024-04-09T03:00:02.763Z,622.00
2024-04-09T03:01:02.823Z,621.00
2024-04-09T03:02:02.900Z,618.00
2024-04-09T03:03:02.960Z,618.00
2024-04-09T03:04:03.226Z,621.00
2024-04-09T03:05:03.011Z,625.00
2024-04-09T03:06:03.101Z,628.00
2024-04-09T03:07:03.130Z,632.00
2024-04-09T03:08:03.169Z,634.00
2024-04-09T03:09:03.275Z,634.00
2024-04-09T03:10:03.259Z,632.00
2024-04-09T03:11:03.332Z,633.00
2024-04-09T03:12:03.492Z,632.00
2024-04-09T03:13:03.486Z,629.00
2024-04-09T03:14:03.491Z,629.00
2024-04-09T03:15:03.587Z,626.00
2024-04-09T03:16:03.614Z,623.00
2024-04-09T03:17:03.631Z,620.00
2024-04-09T03:18:03.752Z,619.00
2024-04-09T03:19:03.756Z,619.00
2024-04-09T03:20:03.858Z,619.00
2024-04-09T03:21:03.849Z,618.00
2024-04-09T03:22:03.908Z,620.00
2024-04-09T03:23:03.964Z,619.00
2024-04-09T03:24:04.194Z,621.00
2024-04-09T03:25:04.048Z,622.00
2024-04-09T03:26:04.112Z,621.00
2024-04-09T03:27:04.206Z,621.00
2024-04-09T03:28:04.215Z,624.00
2024-04-09T03:29:04.256Z,626.00
2024-04-09T03:30:04.382Z,623.00
2024-04-09T03:31:04.392Z,620.00
2024-04-09T03:32:04.463Z,619.00
2024-04-09T03:33:04.652Z,619.00
2024-04-09T03:34:04.740Z,619.00
2024-04-09T03:35:04.634Z,617.00
2024-04-09T03:36:04.832Z,619.00
2024-04-09T03:37:04.712Z,621.00
2024-04-09T03:38:04.781Z,621.00
2024-04-09T03:39:04.886Z,622.00
2024-04-09T03:40:04.886Z,622.00
2024-04-09T03:41:04.966Z,624.00
2024-04-09T03:42:05.027Z,623.00
2024-04-09T03:43:05.077Z,626.00
2024-04-09T03:44:05.155Z,626.00
2024-04-09T03:45:05.228Z,625.00
2024-04-09T03:46:05.259Z,623.00
2024-04-09T03:47:05.302Z,619.00
2024-04-09T03:48:05.451Z,619.00
2024-04-09T03:49:05.584Z,620.00
2024-04-09T03:50:05.476Z,618.00
2024-04-09T03:51:05.547Z,621.00
2024-04-09T03:52:05.590Z,622.00
2024-04-09T03:53:05.628Z,623.00
2024-04-09T03:54:05.791Z,625.00
2024-04-09T03:55:05.739Z,626.00
2024-04-09T03:56:05.782Z,626.00
2024-04-09T03:57:05.883Z,622.00
2024-04-09T03:58:05.909Z,624.00
2024-04-09T03:59:05.950Z,621.00
2024-04-09T04:00:06.131Z,619.00
2024-04-09T04:01:09.054Z,620.00
2024-04-09T04:02:06.130Z,619.00
2024-04-09T04:03:06.158Z,620.00
2024-04-09T04:04:06.287Z,621.00
2024-04-09T04:05:06.106Z,620.00
2024-04-09T04:06:06.129Z,622.00
2024-04-09T04:07:06.109Z,622.00
2024-04-09T04:08:06.119Z,621.00
2024-04-09T04:09:06.173Z,620.00
2024-04-09T04:10:07.961Z,620.00
2024-04-09T04:11:06.132Z,617.00
2024-04-09T04:12:06.120Z,616.00
2024-04-09T04:13:06.105Z,615.00
2024-04-09T04:14:06.113Z,617.00
2024-04-09T04:15:06.123Z,617.00
2024-04-09T04:16:06.117Z,619.00
2024-04-09T04:17:06.227Z,618.00
2024-04-09T04:18:06.185Z,618.00
2024-04-09T04:19:06.180Z,616.00
2024-04-09T04:20:06.118Z,621.00
2024-04-09T04:21:08.879Z,621.00
2024-04-09T04:22:06.121Z,621.00
2024-04-09T04:23:06.173Z,618.00
2024-04-09T04:24:06.155Z,617.00
2024-04-09T04:25:06.127Z,615.00
2024-04-09T04:26:06.129Z,613.00
2024-04-09T04:27:06.215Z,610.00
2024-04-09T04:28:06.140Z,609.00
2024-04-09T04:29:06.128Z,611.00
2024-04-09T04:30:06.208Z,610.00
2024-04-09T04:31:06.132Z,610.00
2024-04-09T04:32:13.431Z,619.00
2024-04-09T04:33:13.502Z,621.00
2024-04-09T04:34:13.477Z,620.00
2024-04-09T04:35:13.392Z,616.00
2024-04-09T04:36:16.363Z,614.00
2024-04-09T04:37:13.400Z,615.00
2024-04-09T04:38:13.388Z,615.00
2024-04-09T04:39:13.420Z,614.00
2024-04-09T04:40:13.370Z,612.00
2024-04-09T04:41:13.445Z,612.00
2024-04-09T04:42:13.475Z,611.00
2024-04-09T04:43:13.407Z,610.00
2024-04-09T04:44:13.391Z,608.00
2024-04-09T04:45:13.457Z,608.00
2024-04-09T04:46:13.399Z,608.00
2024-04-09T04:47:13.383Z,607.00
2024-04-09T04:48:13.637Z,606.00
2024-04-09T04:49:13.588Z,609.00
2024-04-09T04:50:13.406Z,606.00
2024-04-09T04:51:13.460Z,606.00
2024-04-09T04:52:13.411Z,605.00
2024-04-09T04:53:13.406Z,607.00
2024-04-09T04:54:13.448Z,608.00
2024-04-09T04:55:13.430Z,610.00
2024-04-09T04:56:13.417Z,612.00
2024-04-09T04:57:13.503Z,612.00
2024-04-09T04:58:13.432Z,612.00
2024-04-09T04:59:13.406Z,613.00
2024-04-09T05:00:13.432Z,610.00
2024-04-09T05:01:13.452Z,613.00
2024-04-09T05:02:13.478Z,616.00
2024-04-09T05:03:13.650Z,615.00
2024-04-09T05:04:13.538Z,612.00
2024-04-09T05:05:13.422Z,612.00
2024-04-09T05:06:13.487Z,611.00
2024-04-09T05:07:13.448Z,610.00
2024-04-09T05:08:13.439Z,610.00
2024-04-09T05:09:13.466Z,610.00
2024-04-09T05:10:13.447Z,611.00
2024-04-09T05:11:13.455Z,612.00
2024-04-09T05:12:13.459Z,613.00
2024-04-09T05:13:13.463Z,613.00
2024-04-09T05:14:13.454Z,612.00
2024-04-09T05:15:13.482Z,612.00
2024-04-09T05:16:13.456Z,611.00
2024-04-09T05:17:13.426Z,613.00
2024-04-09T05:18:13.674Z,614.00
2024-04-09T05:19:13.656Z,614.00
2024-04-09T05:20:13.583Z,613.00
2024-04-09T05:21:13.647Z,613.00
2024-04-09T05:22:13.701Z,614.00
2024-04-09T05:23:13.702Z,613.00
2024-04-09T05:24:13.800Z,615.00
2024-04-09T05:25:13.799Z,614.00
2024-04-09T05:26:13.834Z,613.00
2024-04-09T05:27:13.907Z,614.00
2024-04-09T05:28:14.059Z,615.00
2024-04-09T05:29:14.017Z,617.00
2024-04-09T05:30:14.127Z,615.00
2024-04-09T05:31:14.082Z,615.00
2024-04-09T05:32:14.193Z,614.00
2024-04-09T05:33:14.232Z,614.00
2024-04-09T05:34:14.275Z,612.00
2024-04-09T05:35:14.257Z,613.00
2024-04-09T05:36:14.365Z,626.00
2024-04-09T05:37:14.343Z,635.00
2024-04-09T05:38:14.428Z,656.00
2024-04-09T05:39:14.469Z,667.00
2024-04-09T05:40:14.540Z,681.00
2024-04-09T05:41:14.566Z,693.00
2024-04-09T05:42:14.606Z,703.00
2024-04-09T05:43:15.496Z,764.00
2024-04-09T05:44:14.684Z,839.00
2024-04-09T05:45:14.824Z,842.00
2024-04-09T05:46:14.684Z,940.00
2024-04-09T05:47:14.756Z,961.00
2024-04-09T05:48:15.198Z,990.00
2024-04-09T05:49:14.911Z,1077.00
2024-04-09T05:50:14.966Z,1118.00
2024-04-09T05:51:14.819Z,1162.00
2024-04-09T05:52:14.757Z,1176.00
2024-04-09T05:53:14.761Z,1199.00
2024-04-09T05:54:14.814Z,1211.00
2024-04-09T05:55:14.821Z,1213.00
2024-04-09T05:56:14.843Z,1214.00
2024-04-09T05:57:14.936Z,1212.00
2024-04-09T05:58:14.981Z,1206.00
2024-04-09T05:59:14.949Z,1198.00
2024-04-09T06:01:15.040Z,1178.00
2024-04-09T06:02:14.992Z,1172.00
2024-04-09T06:03:15.058Z,1173.00
2024-04-09T06:04:17.159Z,1175.00
2024-04-09T06:05:14.989Z,1177.00
2024-04-09T06:06:15.038Z,1179.00
2024-04-09T06:07:14.983Z,1183.00
2024-04-09T06:08:15.017Z,1185.00
2024-04-09T06:09:15.059Z,1183.00
2024-04-09T06:10:15.026Z,1180.00
2024-04-09T06:11:15.119Z,1176.00
2024-04-09T06:12:15.065Z,1176.00
2024-04-09T06:13:15.081Z,1172.00
2024-04-09T06:14:15.108Z,1170.00
2024-04-09T06:15:15.167Z,1169.00
2024-04-09T06:16:15.122Z,1164.00
2024-04-09T06:17:15.162Z,1165.00
2024-04-09T06:18:15.440Z,1165.00
2024-04-09T06:19:16.133Z,1162.00
2024-04-09T06:20:15.243Z,1158.00
2024-04-09T06:21:15.228Z,1158.00
2024-04-09T06:22:15.220Z,1156.00
2024-04-09T06:23:15.249Z,1157.00
2024-04-09T06:24:15.301Z,1156.00
2024-04-09T06:25:15.270Z,1156.00
2024-04-09T06:26:15.323Z,1157.00
2024-04-09T06:27:15.412Z,1157.00
2024-04-09T06:28:15.567Z,1159.00
2024-04-09T06:29:15.532Z,1157.00
2024-04-09T06:30:15.447Z,1155.00
2024-04-09T06:31:15.414Z,1156.00
2024-04-09T06:32:15.570Z,1154.00
2024-04-09T06:33:16.096Z,1152.00
2024-04-09T06:34:15.591Z,1151.00
2024-04-09T06:35:15.512Z,1146.00
2024-04-09T06:36:25.082Z,1148.00
2024-04-09T06:37:16.659Z,1157.00
2024-04-09T06:38:15.542Z,1162.00
2024-04-09T06:39:15.542Z,1168.00
2024-04-09T06:40:15.530Z,1273.00
2024-04-09T06:41:15.569Z,1221.00
2024-04-09T06:42:15.587Z,1202.00
2024-04-09T06:43:15.549Z,1185.00
2024-04-09T06:44:15.541Z,1230.00
2024-04-09T06:45:15.645Z,1247.00
2024-04-09T06:46:15.559Z,1243.00
2024-04-09T06:47:15.628Z,1241.00
2024-04-09T06:48:15.706Z,1265.00
2024-04-09T06:49:16.258Z,1305.00
2024-04-09T06:50:15.559Z,1328.00
2024-04-09T06:51:15.609Z,1345.00
2024-04-09T06:52:15.568Z,1350.00
2024-04-09T06:53:15.549Z,1358.00
2024-04-09T06:54:15.890Z,1366.00
2024-04-09T06:55:15.553Z,1380.00
2024-04-09T06:56:15.572Z,1393.00
2024-04-09T06:57:15.664Z,1420.00
2024-04-09T06:58:15.550Z,1445.00
2024-04-09T06:59:15.561Z,1444.00
2024-04-09T07:00:15.609Z,1447.00
2024-04-09T07:01:15.580Z,1457.00
2024-04-09T07:02:15.575Z,1464.00
2024-04-09T07:03:15.761Z,1475.00
2024-04-09T07:04:16.400Z,1487.00
2024-04-09T07:05:15.594Z,1501.00
2024-04-09T07:06:15.648Z,1511.00
2024-04-09T07:07:15.656Z,1526.00
2024-04-09T07:08:15.625Z,1538.00
2024-04-09T07:09:15.697Z,1549.00
2024-04-09T07:10:15.696Z,1559.00
2024-04-09T07:11:15.737Z,1566.00
2024-04-09T07:12:15.764Z,1575.00
2024-04-09T07:13:15.711Z,1586.00
2024-04-09T07:14:15.706Z,1593.00
2024-04-09T07:15:15.739Z,1603.00
2024-04-09T07:16:15.707Z,1619.00
2024-04-09T07:17:15.745Z,1629.00
2024-04-09T07:18:15.836Z,1641.00
2024-04-09T07:19:15.741Z,1654.00
2024-04-09T07:20:15.733Z,1671.00
2024-04-09T07:21:15.758Z,1673.00
2024-04-09T07:22:15.771Z,1667.00
2024-04-09T07:23:15.827Z,1658.00
2024-04-09T07:24:15.853Z,1630.00
2024-04-09T07:25:15.822Z,1573.00
2024-04-09T07:26:15.908Z,1561.00
2024-04-09T07:27:15.853Z,1557.00
2024-04-09T07:28:15.847Z,1645.00
2024-04-09T07:29:15.849Z,1613.00
2024-04-09T07:30:15.954Z,1584.00
2024-04-09T07:31:15.941Z,1568.00
2024-04-09T07:32:15.892Z,1547.00
2024-04-09T07:33:16.051Z,1536.00
2024-04-09T07:34:15.915Z,1558.00
2024-04-09T07:35:15.949Z,1548.00
2024-04-09T07:36:16.166Z,1537.00
2024-04-09T07:37:15.962Z,1542.00
2024-04-09T07:38:15.963Z,1545.00
2024-04-09T07:39:16.119Z,1306.00
2024-04-09T07:40:16.007Z,1098.00
2024-04-09T07:41:16.041Z,1048.00
2024-04-09T07:42:16.091Z,1007.00
2024-04-09T07:43:16.074Z,968.00
2024-04-09T07:44:16.118Z,945.00
2024-04-09T07:45:16.211Z,937.00
2024-04-09T07:46:16.160Z,924.00
2024-04-09T07:47:16.228Z,912.00
2024-04-09T07:48:16.339Z,904.00
2024-04-09T07:49:16.384Z,896.00
2024-04-09T07:50:16.302Z,890.00
2024-04-09T07:51:16.341Z,890.00
2024-04-09T07:52:16.352Z,886.00
2024-04-09T07:53:16.374Z,884.00
2024-04-09T07:54:16.430Z,878.00
2024-04-09T07:55:16.449Z,871.00
2024-04-09T07:56:16.464Z,863.00
2024-04-09T07:57:16.530Z,861.00
2024-04-09T07:58:16.529Z,861.00
2024-04-09T07:59:16.598Z,855.00
2024-04-09T08:00:16.631Z,849.00
2024-04-09T08:01:16.671Z,838.00
2024-04-09T08:02:16.670Z,822.00
2024-04-09T08:03:16.794Z,819.00
2024-04-09T08:04:16.952Z,811.00
2024-04-09T08:05:16.895Z,800.00
2024-04-09T08:06:16.953Z,794.00
2024-04-09T08:07:17.016Z,793.00
2024-04-09T08:08:17.014Z,789.00
2024-04-09T08:09:17.364Z,788.00
2024-04-09T08:10:17.040Z,787.00
2024-04-09T08:11:17.179Z,785.00
2024-04-09T08:12:17.224Z,785.00
2024-04-09T08:13:17.029Z,783.00
2024-04-09T08:14:16.999Z,782.00
2024-04-09T08:15:17.119Z,778.00
2024-04-09T08:16:17.058Z,777.00
2024-04-09T08:17:17.088Z,777.00
2024-04-09T08:18:17.198Z,777.00
2024-04-09T08:19:17.262Z,786.00
2024-04-09T08:20:17.359Z,812.00
2024-04-09T08:21:18.655Z,845.00
2024-04-09T08:22:17.169Z,879.00
2024-04-09T08:23:17.147Z,892.00
2024-04-09T08:24:17.297Z,1012.00
2024-04-09T08:25:17.190Z,1028.00
2024-04-09T08:26:17.171Z,1029.00
2024-04-09T08:27:17.198Z,1029.00
2024-04-09T08:28:17.157Z,1021.00
2024-04-09T08:29:17.696Z,1014.00
2024-04-09T08:30:17.220Z,1004.00
2024-04-09T08:31:17.166Z,996.00
2024-04-09T08:32:17.221Z,986.00
2024-04-09T08:33:17.284Z,982.00
2024-04-09T08:34:17.752Z,975.00
2024-04-09T08:35:17.192Z,969.00
2024-04-09T08:36:17.288Z,964.00
2024-04-09T08:37:17.247Z,960.00
2024-04-09T08:38:17.411Z,957.00
2024-04-09T08:39:17.501Z,954.00
2024-04-09T08:40:17.347Z,954.00
2024-04-09T08:41:17.199Z,951.00
2024-04-09T08:42:17.214Z,954.00
2024-04-09T08:43:17.429Z,1028.00
2024-04-09T08:44:17.188Z,1017.00
2024-04-09T08:46:17.306Z,1117.00
2024-04-09T08:47:17.225Z,1120.00
2024-04-09T08:48:17.576Z,1140.00
2024-04-09T08:49:17.851Z,1221.00
2024-04-09T08:50:18.078Z,1198.00
2024-04-09T08:51:17.821Z,1172.00
2024-04-09T08:52:17.231Z,1143.00
2024-04-09T08:53:17.198Z,1106.00
2024-04-09T08:54:17.265Z,1087.00
2024-04-09T08:55:21.157Z,1071.00
2024-04-09T08:56:17.202Z,1061.00
2024-04-09T08:57:17.256Z,1052.00
2024-04-09T08:58:17.205Z,1047.00
2024-04-09T08:59:17.614Z,1055.00
2024-04-09T09:00:17.212Z,1080.00
2024-04-09T09:01:17.364Z,1062.00
2024-04-09T09:02:17.207Z,1073.00
2024-04-09T09:03:17.436Z,1055.00
2024-04-09T09:04:17.398Z,1040.00
2024-04-09T09:05:17.310Z,1030.00
2024-04-09T09:06:17.314Z,1036.00
2024-04-09T09:07:17.233Z,1070.00
2024-04-09T09:08:17.234Z,1085.00
2024-04-09T09:09:17.672Z,1031.00
2024-04-09T09:10:17.234Z,996.00
2024-04-09T09:11:17.652Z,991.00
2024-04-09T09:12:17.445Z,987.00
2024-04-09T09:13:17.502Z,1004.00
2024-04-09T09:14:17.482Z,1052.00
2024-04-09T09:15:17.659Z,1059.00
2024-04-09T09:16:17.668Z,1084.00
2024-04-09T09:17:17.660Z,1099.00
2024-04-09T09:18:17.773Z,1105.00
2024-04-09T09:19:17.861Z,1115.00
2024-04-09T09:20:18.068Z,1120.00
2024-04-09T09:21:17.930Z,1121.00
2024-04-09T09:22:17.925Z,1121.00
2024-04-09T09:23:17.993Z,1121.00
2024-04-09T09:24:18.079Z,1113.00
2024-04-09T09:25:18.084Z,1123.00
2024-04-09T09:26:18.658Z,1133.00
2024-04-09T09:27:18.231Z,1146.00
2024-04-09T09:28:18.234Z,1150.00
2024-04-09T09:29:18.628Z,1150.00
2024-04-09T09:30:18.392Z,1147.00
2024-04-09T09:31:18.466Z,1149.00
2024-04-09T09:32:18.502Z,1186.00
2024-04-09T09:33:18.536Z,1229.00
2024-04-09T09:34:18.542Z,1231.00
2024-04-09T09:35:18.586Z,1256.00
2024-04-09T09:36:18.639Z,1269.00
2024-04-09T09:37:18.676Z,1281.00
2024-04-09T09:38:18.712Z,1298.00
2024-04-09T09:39:18.803Z,1328.00
2024-04-09T09:40:18.792Z,1346.00
2024-04-09T09:41:18.799Z,1361.00
2024-04-09T09:42:18.841Z,1375.00
2024-04-09T09:43:18.930Z,1385.00
2024-04-09T09:44:18.879Z,1405.00
2024-04-09T09:45:18.929Z,1430.00
2024-04-09T09:46:18.904Z,1447.00
2024-04-09T09:47:18.947Z,1457.00
2024-04-09T09:48:19.082Z,1475.00
2024-04-09T09:49:20.226Z,1493.00
2024-04-09T09:50:19.749Z,1522.00
2024-04-09T09:51:19.099Z,1540.00
2024-04-09T09:52:18.961Z,1552.00
2024-04-09T09:53:19.197Z,1564.00
2024-04-09T09:54:19.389Z,1578.00
2024-04-09T09:55:19.113Z,1589.00
2024-04-09T09:56:19.003Z,1602.00
2024-04-09T09:57:19.102Z,1622.00
2024-04-09T09:58:19.021Z,1630.00
2024-04-09T09:59:19.033Z,1645.00
2024-04-09T10:00:19.051Z,1667.00
2024-04-09T10:01:19.301Z,1683.00
2024-04-09T10:02:19.050Z,1701.00
2024-04-09T10:03:19.151Z,1714.00
2024-04-09T10:04:19.468Z,1726.00
2024-04-09T10:05:19.183Z,1750.00
2024-04-09T10:06:19.256Z,1767.00
2024-04-09T10:07:19.152Z,1801.00
2024-04-09T10:08:19.148Z,1847.00
2024-04-09T10:09:19.222Z,1873.00
2024-04-09T10:10:19.182Z,1900.00
2024-04-09T10:11:19.274Z,1916.00
2024-04-09T10:12:19.281Z,1927.00
2024-04-09T10:13:19.242Z,1945.00
2024-04-09T10:14:19.250Z,1966.00
2024-04-09T10:15:19.443Z,2004.00
2024-04-09T10:16:19.372Z,2020.00
2024-04-09T10:17:19.474Z,2032.00
2024-04-09T10:18:19.729Z,2046.00
2024-04-09T10:19:19.615Z,2059.00
2024-04-09T10:20:19.622Z,2084.00
2024-04-09T10:21:19.692Z,2098.00
2024-04-09T10:22:19.741Z,2091.00
2024-04-09T10:23:19.793Z,2080.00
2024-04-09T10:24:20.164Z,2077.00
2024-04-09T10:25:19.951Z,2104.00
2024-04-09T10:26:19.985Z,2155.00
2024-04-09T10:27:20.101Z,2159.00
2024-04-09T10:28:20.179Z,2163.00
2024-04-09T10:29:20.703Z,2161.00
2024-04-09T10:30:20.277Z,2150.00
2024-04-09T10:31:20.313Z,2031.00
2024-04-09T10:32:20.359Z,2024.00
2024-04-09T10:33:20.442Z,2015.00
2024-04-09T10:34:28.045Z,1985.00
2024-04-09T10:35:20.363Z,1977.00
2024-04-09T10:36:20.443Z,1976.00
2024-04-09T10:37:20.362Z,1981.00
2024-04-09T10:38:20.391Z,1984.00
2024-04-09T10:39:20.467Z,2004.00
2024-04-09T10:40:20.374Z,2019.00
2024-04-09T10:41:20.367Z,2029.00
2024-04-09T10:42:20.390Z,2025.00
2024-04-09T10:43:20.366Z,2031.00
2024-04-09T10:44:20.691Z,2037.00
2024-04-09T10:45:20.412Z,2040.00
2024-04-09T10:46:20.527Z,2033.00
2024-04-09T10:47:20.487Z,2024.00
2024-04-09T10:48:20.477Z,1793.00
2024-04-09T10:49:20.798Z,1770.00
2024-04-09T10:50:20.494Z,1764.00
2024-04-09T10:51:22.601Z,1682.00
2024-04-09T10:52:20.386Z,1651.00
2024-04-09T10:53:20.416Z,1650.00
2024-04-09T10:54:20.405Z,1609.00
2024-04-09T10:55:20.376Z,1558.00
2024-04-09T10:56:20.380Z,1540.00
2024-04-09T10:57:21.607Z,1478.00
2024-04-09T10:58:20.388Z,1461.00
2024-04-09T10:59:20.420Z,1443.00
2024-04-09T11:00:20.438Z,1434.00
2024-04-09T11:01:20.411Z,1421.00
2024-04-09T11:02:20.433Z,1170.00
2024-04-09T11:03:22.659Z,1101.00
2024-04-09T11:04:20.864Z,979.00
2024-04-09T11:05:20.445Z,971.00
2024-04-09T11:06:20.415Z,971.00
2024-04-09T11:07:20.399Z,966.00
2024-04-09T11:08:20.405Z,954.00
2024-04-09T11:09:20.459Z,859.00
2024-04-09T11:10:20.515Z,832.00
2024-04-09T11:11:20.478Z,820.00
2024-04-09T11:12:20.447Z,793.00
2024-04-09T11:13:20.397Z,720.00
2024-04-09T11:14:20.402Z,641.00
2024-04-09T11:15:20.525Z,629.00
2024-04-09T11:16:20.402Z,621.00
2024-04-09T11:17:20.583Z,625.00
2024-04-09T11:18:20.654Z,650.00
2024-04-09T11:19:20.537Z,696.00
2024-04-09T11:20:20.436Z,710.00
2024-04-09T11:21:20.471Z,717.00
2024-04-09T11:22:20.416Z,717.00
2024-04-09T11:23:20.412Z,713.00
2024-04-09T11:24:20.715Z,711.00
2024-04-09T11:25:22.310Z,711.00
2024-04-09T11:26:20.428Z,707.00
2024-04-09T11:27:20.461Z,704.00
2024-04-09T11:28:20.419Z,700.00
2024-04-09T11:29:20.435Z,700.00
2024-04-09T11:30:20.482Z,700.00
2024-04-09T11:31:22.355Z,701.00
2024-04-09T11:32:20.419Z,699.00
2024-04-09T11:33:20.627Z,694.00
2024-04-09T11:34:20.498Z,691.00
2024-04-09T11:35:20.495Z,690.00
2024-04-09T11:36:27.529Z,690.00
2024-04-09T11:37:21.985Z,689.00
2024-04-09T11:38:20.431Z,685.00
2024-04-09T11:39:20.482Z,684.00
2024-04-09T11:40:20.453Z,679.00
2024-04-09T11:41:20.435Z,677.00
2024-04-09T11:42:20.514Z,676.00
2024-04-09T11:43:20.454Z,679.00
2024-04-09T11:44:20.448Z,678.00
2024-04-09T11:45:20.453Z,677.00
2024-04-09T11:46:20.446Z,677.00
2024-04-09T11:47:20.523Z,678.00
2024-04-09T11:48:20.570Z,675.00
2024-04-09T11:49:20.512Z,672.00
2024-04-09T11:50:20.471Z,674.00
2024-04-09T11:51:20.459Z,671.00
2024-04-09T11:52:20.479Z,670.00
2024-04-09T11:53:22.498Z,666.00
2024-04-09T11:54:20.528Z,664.00
2024-04-09T11:55:22.581Z,663.00
2024-04-09T11:56:20.472Z,662.00
2024-04-09T11:57:20.524Z,662.00
2024-04-09T11:58:20.476Z,661.00
2024-04-09T11:59:20.477Z,659.00
2024-04-09T12:00:20.536Z,658.00
2024-04-09T12:01:20.602Z,661.00
2024-04-09T12:02:20.531Z,662.00
2024-04-09T12:03:20.550Z,660.00
2024-04-09T12:04:20.614Z,658.00
2024-04-09T12:05:20.519Z,659.00
2024-04-09T12:06:20.505Z,661.00
2024-04-09T12:07:20.532Z,660.00
2024-04-09T12:08:20.497Z,661.00
2024-04-09T12:09:20.577Z,658.00
2024-04-09T12:10:20.481Z,656.00
2024-04-09T12:11:22.424Z,655.00
2024-04-09T12:12:20.541Z,653.00
2024-04-09T12:13:20.493Z,652.00
2024-04-09T12:14:20.540Z,651.00
2024-04-09T12:15:20.757Z,652.00
2024-04-09T12:16:20.495Z,651.00
2024-04-09T12:17:22.032Z,650.00
2024-04-09T12:18:20.629Z,650.00
2024-04-09T12:19:20.566Z,652.00
2024-04-09T12:20:20.831Z,658.00
2024-04-09T12:21:20.589Z,701.00
2024-04-09T12:22:20.539Z,689.00
2024-04-09T12:23:22.025Z,686.00